Airfield :
LOGIN :

Register | Disclaimer

   EN    FR    IT 

 










Legend :    VFR   Marginal VFR   IFR   Intensive IFR   Very Intensive IFR
Visi :
Ceiling :
>= 8 km
>= 3000ft
5 to 8 km
1000 to 3000 ft
1500m to 5 km
500 to 1000 ft
800 to 1500m
200 to 500 ft
< 800m
< 200 ft
Symbols :   Thunderstorms  Fog  Heavy snow  Heavy precipitations  Wind > 20 kt
SIGMETs :     Misc.  Thunderstorms  Icing  Turbulence  Mountain Waves  Volcanic Ashes






- Airport Elevation : 16 ft
- IATA code : SDR


LEXJ - Santander Cantabria

CURRENT METAR :
  • 231600Z 05006KT 010V110 CAVOK 17/12 Q1021

EXPIRED METARs :
  • 231530Z 05004KT 350V100 CAVOK 17/12 Q1021
  • 231500Z 05006KT 360V100 CAVOK 17/11 Q1021
  • 231430Z 04005KT 360V080 CAVOK 17/11 Q1021
  • 231400Z 03005KT 350V070 CAVOK 18/10 Q1021
  • 231330Z 04003KT 340V100 CAVOK 18/08 Q1022

TAF TAF LEXJ
Valid from the 23 at 15:00 until the 24 at 15:00 UTC


231400Z 2315/2415 VRB05KT 9999 FEW040 TX20/2414Z TN08/2407Z
PROB30
TEMPO 2315/2317 06010KT
PROB30
TEMPO 2412/2415 34010KT



MET'MAP, your aeronautical weather chart ! - Copyright ORBIFLY December 2007 - Disclaimer

ORBIFLY MET'MAP TEAM :

Programming & Development : Alexandra Zaïnal
Concept & original design : Baudouin d'Aumeries
Assistance for programming : Marc-Olivier Méhu
Technical & hardware support : Manuel Goepfert

Contact : metmap@orbifly.com




SOURCES & CREDITS :

   NOAA